DAOB

Bou Chekif Airport

Tiaret, Algeria
METAR DAOB 140500Z 05009KT 9999 FEW026 11/09 Q1022
Observed Flight Rules
Nov-14 @ 05:00 UTC (30 minutes ago) Visual Flight Rules
Wind Visibility Clouds
50° at 9 knots 10,000+ meters
  • Few at 2,600' AGL
Temperatures Readings
Current 11°C / 52°F
Dewpoint 9°C / 48°F
Humidity 88%
Altimeter 30.18" Hg
Pressure 1022 hPa
Elevation 989
METAR DAOB 140500Z 05009KT 9999 FEW026 11/09 Q1022
Observed Flight Rules
Nov-14 @ 05:00 UTC
(30 minutes ago)
VFR
Wind Visibility
50° at 9 knots 10,000+ meters
Clouds
  • Few at 2,600' AGL
Temperature Dewpoint
11°C / 52°F 9°C / 48°F
Humidity Altimeter Pressure
88% 30.18" Hg 1022 hPa